createdAt,value
2018-08-28T00:17:02.715Z,22.90
2018-08-28T00:20:50.094Z,22.90
2018-08-28T00:29:15.540Z,22.80
2018-08-28T00:34:51.103Z,22.70
2018-08-28T00:40:28.860Z,22.70
2018-08-28T00:43:05.042Z,22.70
2018-08-28T00:45:33.739Z,22.70
2018-08-28T00:48:02.657Z,22.60
2018-08-28T00:50:38.745Z,22.60
2018-08-28T00:56:08.523Z,22.60
2018-08-28T00:58:42.813Z,22.70
2018-08-28T01:04:16.032Z,22.70
2018-08-28T01:07:04.143Z,22.70
2018-08-28T01:09:33.040Z,22.60
2018-08-28T01:12:01.787Z,22.50
2018-08-28T01:14:30.315Z,22.40
2018-08-28T01:16:58.942Z,22.40
2018-08-28T01:22:51.666Z,22.30
2018-08-28T01:25:21.459Z,22.30
2018-08-28T01:27:50.221Z,22.30
2018-08-28T01:30:23.734Z,22.20
2018-08-28T01:32:56.590Z,22.20
2018-08-28T01:35:29.732Z,22.20
2018-08-28T01:38:20.711Z,22.20
2018-08-28T01:40:55.667Z,22.20
2018-08-28T01:43:30.871Z,22.10
2018-08-28T01:45:59.431Z,22.10
2018-08-28T01:48:28.323Z,22.10
2018-08-28T01:51:05.798Z,22.00
2018-08-28T01:53:34.472Z,22.00
2018-08-28T01:56:03.093Z,22.00
2018-08-28T01:58:31.725Z,22.00
2018-08-28T02:01:00.377Z,21.80
2018-08-28T02:03:29.981Z,21.80
2018-08-28T02:05:58.729Z,21.80
2018-08-28T02:08:27.367Z,21.80
2018-08-28T02:15:18.172Z,21.80
2018-08-28T02:22:35.819Z,21.80
2018-08-28T02:25:04.984Z,21.80
2018-08-28T02:27:33.604Z,21.80
2018-08-28T02:30:02.385Z,21.80
2018-08-28T02:32:37.149Z,21.70
2018-08-28T02:35:09.086Z,21.70
2018-08-28T02:37:51.040Z,21.70
2018-08-28T02:40:22.525Z,21.60
2018-08-28T02:42:51.376Z,21.60
2018-08-28T02:45:27.325Z,21.60
2018-08-28T02:47:56.022Z,21.60
2018-08-28T02:50:26.340Z,21.60
2018-08-28T02:52:55.283Z,21.50
2018-08-28T02:55:23.827Z,21.50
2018-08-28T03:08:46.758Z,21.50
2018-08-28T03:11:15.422Z,21.50
2018-08-28T03:13:44.044Z,21.50
2018-08-28T03:16:17.105Z,21.50
2018-08-28T03:18:52.393Z,21.40
2018-08-28T03:31:43.871Z,21.30
2018-08-28T03:34:18.373Z,21.40
2018-08-28T03:36:51.449Z,21.30
2018-08-28T03:44:22.987Z,21.30
2018-08-28T04:02:04.157Z,21.30
2018-08-28T04:09:52.822Z,21.20
2018-08-28T04:12:27.432Z,21.20
2018-08-28T04:14:56.432Z,21.10
2018-08-28T04:17:26.053Z,21.10
2018-08-28T04:20:07.398Z,21.00
2018-08-28T04:28:20.050Z,20.80
2018-08-28T04:31:23.957Z,20.80
2018-08-28T04:38:16.186Z,20.70
2018-08-28T07:30:43.456Z,22.80
2018-08-28T07:33:11.955Z,22.80
2018-08-28T07:35:40.857Z,23.20
2018-08-28T07:38:09.520Z,23.20
2018-08-28T07:40:42.604Z,23.10
2018-08-28T07:43:11.104Z,23.00
2018-08-28T07:45:39.601Z,23.00
2018-08-28T07:48:08.116Z,23.00
2018-08-28T07:50:36.753Z,23.20
2018-08-28T07:53:05.554Z,23.40
2018-08-28T07:55:34.183Z,23.50
2018-08-28T07:58:02.869Z,23.60
2018-08-28T08:00:31.366Z,23.70
2018-08-28T08:03:00.290Z,23.80
2018-08-28T08:05:28.775Z,23.80
2018-08-28T08:07:57.291Z,23.80
2018-08-28T08:10:25.838Z,23.90
2018-08-28T08:12:54.532Z,23.90
2018-08-28T08:15:23.763Z,23.90
2018-08-28T08:17:53.904Z,24.00
2018-08-28T08:20:22.885Z,24.10
2018-08-28T08:22:51.626Z,24.10
2018-08-28T08:25:20.180Z,24.30
2018-08-28T08:27:48.704Z,24.40
2018-08-28T08:30:17.319Z,24.50
2018-08-28T08:32:45.889Z,24.60
2018-08-28T08:35:14.430Z,24.70
2018-08-28T08:37:42.949Z,24.70
2018-08-28T08:40:11.499Z,24.70
2018-08-28T08:42:40.025Z,24.80
2018-08-28T08:45:08.706Z,24.90
2018-08-28T08:47:37.292Z,25.00
2018-08-28T08:50:07.699Z,25.20
2018-08-28T08:52:36.221Z,25.30
2018-08-28T08:55:04.909Z,25.60
2018-08-28T08:57:33.364Z,25.80
2018-08-28T09:00:08.044Z,25.90
2018-08-28T09:02:36.564Z,26.10
2018-08-28T09:05:06.119Z,26.30
2018-08-28T09:07:34.613Z,26.50
2018-08-28T09:10:04.045Z,26.70
2018-08-28T09:12:32.701Z,26.80
2018-08-28T09:15:01.385Z,26.70
2018-08-28T09:17:43.044Z,26.60
2018-08-28T09:20:11.631Z,26.50
2018-08-28T09:22:40.168Z,26.40
2018-08-28T09:25:15.700Z,26.50
2018-08-28T09:27:52.340Z,26.40
2018-08-28T09:30:20.939Z,26.50
2018-08-28T09:32:49.592Z,26.50
2018-08-28T09:35:18.150Z,26.30
2018-08-28T09:37:46.820Z,26.10
2018-08-28T09:40:15.362Z,25.90
2018-08-28T09:42:45.416Z,25.80
2018-08-28T09:45:14.923Z,25.60
2018-08-28T09:47:44.281Z,25.70
2018-08-28T09:50:12.992Z,25.60
2018-08-28T09:52:41.463Z,25.50
2018-08-28T09:55:10.003Z,25.40
2018-08-28T09:57:44.358Z,25.40
2018-08-28T10:00:18.081Z,25.60
2018-08-28T10:03:15.400Z,25.60
2018-08-28T10:05:44.578Z,25.50
2018-08-28T10:08:13.653Z,25.70
2018-08-28T10:10:42.437Z,25.90
2018-08-28T10:13:11.152Z,25.90
2018-08-28T10:15:39.744Z,25.80
2018-08-28T10:18:08.336Z,25.80
2018-08-28T10:20:36.976Z,25.90
2018-08-28T10:23:05.821Z,26.00
2018-08-28T10:25:58.891Z,26.10
2018-08-28T10:28:28.041Z,26.20
2018-08-28T10:30:56.635Z,26.30
2018-08-28T10:33:40.583Z,26.20
2018-08-28T10:36:11.282Z,26.20
2018-08-28T10:43:24.553Z,26.20
2018-08-28T10:45:57.068Z,26.70
2018-08-28T10:52:53.308Z,26.80
2018-08-28T10:55:47.663Z,27.00
2018-08-28T10:58:16.284Z,27.30
2018-08-28T11:00:46.215Z,27.30
2018-08-28T11:03:14.775Z,27.00
2018-08-28T11:05:46.464Z,26.90
2018-08-28T11:08:15.009Z,26.90
2018-08-28T11:10:43.677Z,26.80
2018-08-28T11:13:12.262Z,26.70
2018-08-28T11:15:40.828Z,26.70
2018-08-28T11:18:09.368Z,26.60
2018-08-28T11:20:38.200Z,26.50
2018-08-28T11:23:07.745Z,26.40
2018-08-28T11:25:36.346Z,26.30
2018-08-28T11:28:05.101Z,26.50
2018-08-28T11:30:33.627Z,26.60
2018-08-28T11:33:02.202Z,26.70
2018-08-28T11:35:30.743Z,26.90
2018-08-28T11:38:00.305Z,26.80
2018-08-28T11:40:28.956Z,26.70
2018-08-28T11:42:57.464Z,26.80
2018-08-28T11:45:26.029Z,27.00
2018-08-28T11:47:54.561Z,27.00
2018-08-28T11:50:23.099Z,26.80
2018-08-28T11:52:51.721Z,26.70
2018-08-28T11:55:20.218Z,26.70
2018-08-28T11:57:48.805Z,26.80
2018-08-28T12:00:17.511Z,27.30
2018-08-28T12:02:46.105Z,27.60
2018-08-28T12:05:14.640Z,28.00
2018-08-28T12:07:43.448Z,28.10
2018-08-28T12:10:14.281Z,28.10
2018-08-28T12:12:42.814Z,27.80
2018-08-28T12:15:11.420Z,27.70
2018-08-28T12:17:39.896Z,27.70
2018-08-28T12:20:10.909Z,27.50
2018-08-28T12:22:39.768Z,27.40
2018-08-28T12:25:09.234Z,27.40
2018-08-28T12:27:47.661Z,27.30
2018-08-28T12:30:17.224Z,27.30
2018-08-28T12:32:46.073Z,27.20
2018-08-28T12:35:16.794Z,27.30
2018-08-28T12:42:16.189Z,27.30
2018-08-28T12:44:58.057Z,27.60
2018-08-28T12:47:26.679Z,27.70
2018-08-28T12:49:56.403Z,27.80
2018-08-28T12:52:27.777Z,27.80
2018-08-28T12:54:57.186Z,27.60
2018-08-28T12:57:25.972Z,27.60
2018-08-28T13:00:00.171Z,27.60
2018-08-28T13:02:28.776Z,27.60
2018-08-28T13:04:57.600Z,27.60
2018-08-28T13:07:26.284Z,27.50
2018-08-28T13:10:12.530Z,27.40
2018-08-28T13:12:41.107Z,27.30
2018-08-28T13:15:12.636Z,27.40
2018-08-28T13:17:43.812Z,27.70
2018-08-28T13:20:18.929Z,28.10
2018-08-28T13:22:52.239Z,28.20
2018-08-28T13:25:22.718Z,28.10
2018-08-28T13:27:55.002Z,28.00
2018-08-28T13:30:24.521Z,28.00
2018-08-28T13:32:55.481Z,28.00
2018-08-28T13:35:24.131Z,27.90
2018-08-28T13:37:52.691Z,27.90
2018-08-28T13:40:21.708Z,27.80
2018-08-28T13:42:50.244Z,28.00
2018-08-28T13:45:19.267Z,28.10
2018-08-28T13:47:47.861Z,28.20
2018-08-28T13:50:17.999Z,28.20
2018-08-28T13:52:47.442Z,28.20
2018-08-28T13:55:16.431Z,28.10
2018-08-28T13:57:45.626Z,28.10
2018-08-28T14:00:14.878Z,28.10
2018-08-28T14:02:43.668Z,28.30
2018-08-28T14:05:14.400Z,28.40
2018-08-28T14:07:43.419Z,28.40
2018-08-28T14:10:11.996Z,28.50
2018-08-28T14:12:40.471Z,28.50
2018-08-28T14:15:09.668Z,28.40
2018-08-28T14:17:38.343Z,28.40
2018-08-28T14:20:07.080Z,28.30
2018-08-28T14:22:35.669Z,28.30
2018-08-28T14:25:04.144Z,28.20
2018-08-28T14:27:32.728Z,28.20
2018-08-28T14:30:01.313Z,28.10
2018-08-28T14:32:29.792Z,28.10
2018-08-28T14:34:58.363Z,28.20
2018-08-28T14:37:28.050Z,28.20
2018-08-28T14:39:57.600Z,28.20
2018-08-28T14:42:26.236Z,28.20
2018-08-28T14:44:54.941Z,28.30
2018-08-28T14:47:24.100Z,28.30
2018-08-28T14:49:52.965Z,28.30
2018-08-28T14:52:21.398Z,28.30
2018-08-28T14:54:49.896Z,28.30
2018-08-28T14:57:20.448Z,28.50
2018-08-28T14:59:49.008Z,28.60
2018-08-28T15:02:17.607Z,28.50
2018-08-28T15:04:46.152Z,28.50
2018-08-28T15:07:14.643Z,28.60
2018-08-28T15:09:43.131Z,28.70
2018-08-28T15:12:11.737Z,28.70
2018-08-28T15:14:40.241Z,28.60
2018-08-28T15:17:08.767Z,28.60
2018-08-28T15:19:37.883Z,28.60
2018-08-28T15:22:06.567Z,28.60
2018-08-28T15:24:35.144Z,28.60
2018-08-28T15:27:04.963Z,28.60
2018-08-28T15:29:33.450Z,28.60
2018-08-28T15:32:02.085Z,28.60
2018-08-28T15:34:30.914Z,28.60
2018-08-28T15:36:59.516Z,28.60
2018-08-28T15:39:28.668Z,28.60
2018-08-28T15:41:57.246Z,28.50
2018-08-28T15:44:25.776Z,28.40
2018-08-28T15:46:54.805Z,28.30
2018-08-28T15:49:23.379Z,28.40
2018-08-28T15:51:51.988Z,28.40
2018-08-28T15:54:20.538Z,28.40
2018-08-28T15:56:49.588Z,28.30
2018-08-28T15:59:19.804Z,28.30
2018-08-28T16:01:48.589Z,28.30
2018-08-28T16:05:35.747Z,28.30
2018-08-28T16:08:13.479Z,28.40
2018-08-28T16:10:58.057Z,28.30
2018-08-28T16:13:28.398Z,28.20
2018-08-28T16:15:58.892Z,28.20
2018-08-28T16:18:28.094Z,28.20
2018-08-28T16:20:57.788Z,28.20
2018-08-28T16:23:31.749Z,28.20
2018-08-28T16:26:00.288Z,28.10
2018-08-28T16:28:29.698Z,28.10
2018-08-28T16:30:58.296Z,28.10
2018-08-28T16:33:30.278Z,28.10
2018-08-28T16:35:58.957Z,28.10
2018-08-28T16:38:28.232Z,28.10
2018-08-28T16:40:56.886Z,28.00
2018-08-28T16:43:28.033Z,28.00
2018-08-28T16:45:56.748Z,27.90
2018-08-28T16:48:25.507Z,27.90
2018-08-28T16:51:57.528Z,27.80
2018-08-28T16:54:26.141Z,27.70
2018-08-28T16:56:54.789Z,27.70
2018-08-28T16:59:23.409Z,27.70
2018-08-28T17:01:52.112Z,27.60
2018-08-28T17:04:21.632Z,27.60
2018-08-28T17:06:51.121Z,27.60
2018-08-28T17:09:19.797Z,27.60
2018-08-28T17:11:48.966Z,27.60
2018-08-28T17:14:17.539Z,27.50
2018-08-28T17:16:47.026Z,27.50
2018-08-28T17:19:17.179Z,27.50
2018-08-28T17:21:45.627Z,27.40
2018-08-28T17:24:14.812Z,27.40
2018-08-28T17:26:43.475Z,27.30
2018-08-28T17:29:12.056Z,27.40
2018-08-28T17:31:40.612Z,27.50
2018-08-28T17:34:09.612Z,27.60
2018-08-28T17:36:40.024Z,27.60
2018-08-28T17:39:09.229Z,27.40
2018-08-28T17:41:38.931Z,27.30
2018-08-28T17:44:14.217Z,27.30
2018-08-28T17:46:42.861Z,27.20
2018-08-28T17:49:12.534Z,27.10
2018-08-28T17:51:50.468Z,27.00
2018-08-28T17:54:19.942Z,27.00
2018-08-28T17:56:49.125Z,26.90
2018-08-28T17:59:17.761Z,26.90
2018-08-28T18:01:56.212Z,26.80
2018-08-28T18:04:25.000Z,26.80
2018-08-28T18:06:56.702Z,26.70
2018-08-28T18:09:25.341Z,26.70
2018-08-28T18:11:54.164Z,26.70
2018-08-28T18:14:23.476Z,26.60
2018-08-28T18:16:52.624Z,26.50
2018-08-28T18:19:22.266Z,26.50
2018-08-28T18:21:50.887Z,26.50
2018-08-28T18:24:19.920Z,26.40
2018-08-28T18:26:48.695Z,26.40
2018-08-28T18:29:17.537Z,26.40
2018-08-28T18:31:46.854Z,26.30
2018-08-28T18:34:15.779Z,26.30
2018-08-28T18:36:46.161Z,26.30
2018-08-28T18:39:15.160Z,26.20
2018-08-28T18:41:45.072Z,26.20
2018-08-28T18:44:15.253Z,26.10
2018-08-28T18:46:44.717Z,26.10
2018-08-28T18:49:13.629Z,26.10
2018-08-28T18:51:42.288Z,26.00
2018-08-28T18:54:11.068Z,25.90
2018-08-28T18:56:40.032Z,25.90
2018-08-28T18:59:08.791Z,25.90
2018-08-28T19:01:38.528Z,25.80
2018-08-28T19:04:07.209Z,25.80
2018-08-28T19:06:35.783Z,25.70
2018-08-28T19:09:05.064Z,25.70
2018-08-28T19:11:33.919Z,25.70
2018-08-28T19:14:02.523Z,25.70
2018-08-28T19:16:31.842Z,25.70
2018-08-28T19:19:00.770Z,25.70
2018-08-28T19:21:29.572Z,25.60
2018-08-28T19:23:58.292Z,25.60
2018-08-28T19:26:27.450Z,25.60
2018-08-28T19:28:56.014Z,25.60
2018-08-28T19:31:24.611Z,25.50
2018-08-28T19:33:53.275Z,25.50
2018-08-28T19:36:22.172Z,25.50
2018-08-28T19:38:55.785Z,25.50
2018-08-28T19:41:24.602Z,25.40
2018-08-28T19:44:03.091Z,25.40
2018-08-28T19:50:19.564Z,25.40
2018-08-28T19:52:48.260Z,25.30
2018-08-28T19:55:19.538Z,25.30
2018-08-28T19:57:48.159Z,25.20
2018-08-28T20:00:16.944Z,25.20
2018-08-28T20:02:45.585Z,25.20
2018-08-28T20:05:14.332Z,25.10
2018-08-28T20:07:42.961Z,25.10
2018-08-28T20:10:29.438Z,25.10
2018-08-28T20:12:58.084Z,25.00
2018-08-28T20:15:26.733Z,25.00
2018-08-28T20:17:55.595Z,25.00
2018-08-28T20:20:24.179Z,24.90
2018-08-28T20:22:52.816Z,24.80
2018-08-28T20:25:21.393Z,24.70
2018-08-28T20:27:51.047Z,24.60
2018-08-28T20:30:19.775Z,24.50
2018-08-28T20:32:50.602Z,24.40
2018-08-28T20:35:19.189Z,24.40
2018-08-28T20:37:47.728Z,24.30
2018-08-28T20:40:20.118Z,24.30
2018-08-28T20:43:14.790Z,24.30
2018-08-28T20:45:45.441Z,24.30
2018-08-28T20:48:15.172Z,24.40
2018-08-28T20:50:43.724Z,24.40
2018-08-28T20:56:28.037Z,24.40
2018-08-28T20:59:04.092Z,24.40
2018-08-28T21:01:41.108Z,24.40
2018-08-28T21:04:13.082Z,24.40
2018-08-28T21:06:48.825Z,24.30
2018-08-28T21:09:29.926Z,24.20
2018-08-28T21:12:00.333Z,24.20
2018-08-28T21:14:29.827Z,24.20
2018-08-28T21:16:59.425Z,24.20
2018-08-28T21:19:31.350Z,24.20
2018-08-28T21:22:01.990Z,24.20
2018-08-28T21:24:30.632Z,24.20
2018-08-28T21:27:06.606Z,24.20
2018-08-28T21:29:37.716Z,24.20
2018-08-28T21:32:10.311Z,24.20
2018-08-28T21:34:41.950Z,24.20
2018-08-28T21:37:11.495Z,24.20
2018-08-28T21:39:41.665Z,24.10
2018-08-28T21:42:11.015Z,24.10
2018-08-28T21:44:39.528Z,24.10
2018-08-28T21:47:08.240Z,24.00
2018-08-28T21:49:36.756Z,23.90
2018-08-28T21:52:05.411Z,23.80
2018-08-28T21:54:33.974Z,23.70
2018-08-28T21:57:02.569Z,23.60
2018-08-28T21:59:31.435Z,23.60
2018-08-28T22:02:01.933Z,23.50
2018-08-28T22:04:33.845Z,23.50
2018-08-28T22:07:07.656Z,23.50
2018-08-28T22:09:36.221Z,23.40
2018-08-28T22:12:04.891Z,23.30
2018-08-28T22:14:33.501Z,23.40
2018-08-28T22:17:02.904Z,23.40
2018-08-28T22:19:31.541Z,23.40
2018-08-28T22:22:00.137Z,23.40
2018-08-28T22:24:28.635Z,23.40
2018-08-28T22:26:57.218Z,23.50
2018-08-28T22:29:25.729Z,23.30
2018-08-28T22:31:54.237Z,23.20
2018-08-28T22:34:22.802Z,23.10
2018-08-28T22:36:51.376Z,23.00
2018-08-28T22:39:20.200Z,22.90
2018-08-28T22:41:48.800Z,22.80
2018-08-28T22:44:17.309Z,22.80
2018-08-28T22:46:45.916Z,22.70
2018-08-28T22:49:14.461Z,22.70
2018-08-28T22:51:43.292Z,22.60
2018-08-28T22:54:11.933Z,22.60
2018-08-28T22:56:40.557Z,22.60
2018-08-28T22:59:09.075Z,22.50
2018-08-28T23:01:37.584Z,22.50
2018-08-28T23:04:07.135Z,22.50
2018-08-28T23:06:35.657Z,22.50
2018-08-28T23:09:04.869Z,22.50
2018-08-28T23:11:33.468Z,22.50
2018-08-28T23:14:02.169Z,22.50
2018-08-28T23:16:30.711Z,22.40
2018-08-28T23:18:59.387Z,22.40
2018-08-28T23:21:27.972Z,22.40
2018-08-28T23:23:56.563Z,22.40
2018-08-28T23:26:25.176Z,22.30
2018-08-28T23:28:53.855Z,22.40
2018-08-28T23:31:22.398Z,22.40
2018-08-28T23:33:51.056Z,22.40
2018-08-28T23:36:19.519Z,22.40
2018-08-28T23:38:48.849Z,22.40
2018-08-28T23:41:17.399Z,22.40
2018-08-28T23:43:45.922Z,22.40
2018-08-28T23:46:14.556Z,22.50
2018-08-28T23:48:43.094Z,22.50
2018-08-28T23:51:11.713Z,22.50
2018-08-28T23:53:40.264Z,22.60
2018-08-28T23:56:08.853Z,22.60
2018-08-28T23:58:38.353Z,22.50
